This is the latest recevied weather packets stored in our database for station/object OM1PU-6. If no packets are shown the sender has not sent any weather packets the latest 1 day(s).
| Time | Temp. | Humidity | Pressure | Rain* | Wind** | Luminosity | Snow |
|---|---|---|---|---|---|---|---|
| 1777979896 | 23.89° C | 42% | 1020.9 hPa | 0 mm | 1.79 m/s, 103° | - | - |
| 1777978997 | 23.89° C | 42% | 1020.9 hPa | 0 mm | 1.79 m/s, 201° | - | - |
| 1777978096 | 23.33° C | 42% | 1021.2 hPa | 0 mm | 0.89 m/s, 229° | - | - |
| 1777977198 | 23.89° C | 38% | 1021.4 hPa | 0 mm | 2.68 m/s, 243° | - | - |
| 1777976296 | 25° C | 38% | 1021.2 hPa | 0 mm | 2.68 m/s, 196° | - | - |
| 1777975396 | 24.44° C | 44% | 1021.3 hPa | 0 mm | 1.79 m/s, 111° | - | - |
| 1777974496 | 24.44° C | 44% | 1021.4 hPa | 0 mm | 1.79 m/s, 82° | - | - |
| 1777973597 | 23.33° C | 46% | 1021.5 hPa | 0 mm | 2.24 m/s, 114° | - | - |
| 1777972696 | 22.22° C | 48% | 1021.9 hPa | 0 mm | 0 m/s | - | - |
| 1777971797 | 22.22° C | 48% | 1021.9 hPa | 0 mm | 0.89 m/s, 174° | - | - |
| 1777970896 | 21.67° C | 49% | 1021.8 hPa | 0 mm | 0.45 m/s, 154° | - | - |
| 1777969997 | 21.67° C | 47% | 1022.2 hPa | 0 mm | 2.24 m/s, 221° | - | - |
| 1777969096 | 21.67° C | 48% | 1022 hPa | 0 mm | 0.89 m/s, 133° | - | - |
| 1777968197 | 21.67° C | 49% | 1022 hPa | 0 mm | 0.45 m/s, 276° | - | - |
| 1777967297 | 20° C | 53% | 1022 hPa | 0 mm | 1.34 m/s, 346° | - | - |
| 1777966396 | 19.44° C | 54% | 1022.4 hPa | 0 mm | 1.79 m/s, 212° | - | - |
| 1777965497 | 18.33° C | 57% | 1022.6 hPa | 0 mm | 1.79 m/s, 206° | - | - |
| 1777964596 | 18.89° C | 55% | 1022.5 hPa | 0 mm | 0.45 m/s, 259° | - | - |
| 1777963697 | 18.89° C | 56% | 1022.4 hPa | 0 mm | 0.45 m/s, 284° | - | - |
| 1777962796 | 17.22° C | 60% | 1022.5 hPa | 0 mm | 0.45 m/s, 260° | - | - |
| 1777961897 | 16.11° C | 63% | 1022.6 hPa | 0 mm | 0 m/s | - | - |
| 1777960997 | 16.67° C | 61% | 1022.4 hPa | 0 mm | 0 m/s | - | - |
* Rain latest 24 hours (hover to see other rain measurements)
** Current wind speed in m/s (hover to see current wind gust speed)